Vincentown, NJ (08088)

6:43 AM EDT on July 04, 2015 (GMT -0400)
Gateway to the Pine Barrens | | Change Station
CLOSE
Current Station
Personal Weather Station
Location: Tabernacle, NJ
Elevation: 98 ft
Nearby Weather Stations

Elev 98 ft 39.85 °N, 74.71 °W | Updated 8 seconds ago

Overcast
Overcast
67.3 °F
Feels Like 67.3 °F
N
2.2
Wind Variable Wind from NE
Gusts 2.2 mph

Today
High -- | Low -- °F
--% Chance of Precip.
Yesterday
High -- | Low -- °F
Precip. -- in
5:35 AM 8:30 PM
Waning Gibbous, 93% visible
Pressure 29.92 in
Visibility 9.0 miles
Clouds Few 6500 ft
Few 9000 ft
Overcast 11000 ft
Dew Point 67 °F
Humidity 99%
Rainfall 0.00 in
Snow Depth Not available.
UV 0 out of 12
Pollen 3.20 out of 12
Air Quality Not available.
Flu Activity Not available.
METAR KVAY 040954Z AUTO 05003KT 9SM FEW065 FEW090 OVC110 19/18 A2992 RMK AO2 SLP130 T01940178

More Conditions Fewer Conditions

Pressure 29.92 in
Visibility 9.0 miles
Clouds Few 6500 ft
Few 9000 ft
Overcast 11000 ft
Dew Point 67 °F
Humidity 99%
Rainfall 0.00 in
Snow Depth Not available.
UV 0 out of 12
Pollen 3.20 out of 12
Air Quality Not available.
Flu Activity Not available.
METAR KVAY 040954Z AUTO 05003KT 9SM FEW065 FEW090 OVC110 19/18 A2992 RMK AO2 SLP130 T01940178

More Conditions Fewer Conditions

Nowcast | as of 5:59 am EDT on July 4, 2015

Scattered light showers or sprinkles across coastal sections of New Jersey and southeast Delaware should end by 7 am or 8 am.

×

10-Day Weather Forecast

×

Almanac

Astronomy

Jul. 04, 2015 Rise Set
Actual Time
Civil Twilight
Nautical Twilight
Astronomical Twilight
Moon
Length of Visible Light
Length of Day
Tomorrow will be .
, % of the Moon is Illuminated

Today's Extremes

State Highs State Lows

Community

WunderPhotos

Upload Photos

1,834,935 photos uploaded!

WunderBlogs® & News

Nearby

Air Quality

  Air Quality AQ Index Pollutant
Not available.

Snow Depth

Station Depth Elevation

Earthquake Activity

City Distance Mag. Time & Date
Minimum magnitude displayed is 2.5.

Coastal Water Temperatures

Place Temperature

Stations

Nearby Weather Stations

Station Location Temp. Windchill Dew Point Humidity Wind Precip. Elev Updated Type